Meath Environmental Platform

Observations for Trim Market St

Time AQI Temp °C Hum % Pres Pa CO μg/m³ H₂S μg/m³ NO μg/m³ NO₂ μg/m³ O₃ μg/m³ SO₂ μg/m³ PM1 μg/m³ PM2.5 μg/m³ PM10 μg/m³
Friday 14 August 2026
18:53 2 25.1 44 64,734 0 0 0.99 8.97 65.19 0 0 2.2 2.42
18:51 2 25.1 44 64,711 0 0 0.99 8 61.1 0 0 2.2 2.42
18:46 2 25.4 44 64,588 0 0 0.95 10.12 55.77 0 0 2.2 2.42
18:42 2 25.5 44 64,276 0 0 0.96 9.01 50.69 0 0 2.17 2.39
18:39 2 25.6 45 63,989 0 0 1.06 10.39 54.22 0 0 2.16 2.86
18:37 2 25.6 45 63,821 0 0 1.08 10.13 60.65 0 0 2.15 2.37
18:33 2 25.6 45 63,580 0 0 0.95 10.42 64.95 0 0 2.15 2.36
18:32 2 25.6 45 63,550 0 0 0.95 10.17 63.9 0 0 2.15 2.36
18:31 2 25.6 45 63,507 0 0 0.96 10.34 63.43 0 0 2.14 2.36
18:30 2 25.6 45 63,452 0 0 0.97 12 63.36 0 0 2.14 2.36
18:29 2 25.6 45 63,460 0 0 0.98 10.77 63.06 0 0 2.15 2.36
18:28 2 25.6 45 63,458 0 0 0.98 10.29 60.29 0 0 2.66 2.93
18:27 2 25.6 45 63,424 0 0 0.94 10.58 63.62 0 0 2.14 2.35
18:26 2 25.5 45 63,384 0 0 0.96 10.33 66.74 0 0 2.14 2.36
18:25 2 25.5 45 63,368 0 0 0.97 10.94 62.69 0 0 2.14 2.35
18:24 2 25.5 45 63,376 0 0 0.96 10.22 63.5 0 0 2.14 2.36
18:23 2 25.5 45 63,388 0 0 0.97 10.23 65.14 0 0 2.14 2.36
18:22 2 25.4 45 63,370 0 0 1 12.77 67.75 0 0 2.14 2.36
18:21 2 25.4 45 63,450 0 0 1.14 10.3 60.5 0 0 2.15 2.36
18:20 2 25.4 45 63,422 0 0 1.37 10.32 59.67 0 0 2.67 2.93